Time;durP1;ratioP1;P1;durP2;ratioP2;P2;SDS_P1;SDS_P2;PMS_P1;PMS_P2;Temp;Humidity;BMP_temperature;BMP_pressure;BME280_temperature;BME280_humidity;BME280_pressure;Samples;Min_cycle;Max_cycle;Signal;HPM_P1;HPM_P2
2021/10/10 00:01:17;;;;;;;33.60;25.67;;;9.10;99.90;;;;;;5034075;28;20195;-69
2021/10/10 00:03:42;;;;;;;29.80;23.00;;;9.10;99.90;;;;;;5034059;28;20198;-70
2021/10/10 00:06:08;;;;;;;28.63;23.67;;;9.10;99.90;;;;;;5033814;28;20212;-70
2021/10/10 00:08:34;;;;;;;30.37;24.30;;;9.10;99.90;;;;;;5033756;28;20166;-70
2021/10/10 00:10:59;;;;;;;25.00;22.30;;;9.10;99.90;;;;;;5033905;28;20450;-70
2021/10/10 00:13:25;;;;;;;22.47;20.10;;;9.10;99.90;;;;;;5022898;28;20268;-69
2021/10/10 00:15:51;;;;;;;21.33;18.97;;;9.00;99.90;;;;;;5014158;28;20183;-69
2021/10/10 00:18:16;;;;;;;22.57;18.63;;;9.00;99.90;;;;;;5013812;28;20508;-69
2021/10/10 00:20:42;;;;;;;20.40;18.20;;;9.00;99.90;;;;;;5013904;28;20162;-69
2021/10/10 00:23:07;;;;;;;22.10;17.60;;;9.00;99.90;;;;;;5013762;28;20163;-69
2021/10/10 00:25:33;;;;;;;25.53;20.53;;;9.00;99.90;;;;;;5013813;28;20198;-72
2021/10/10 00:27:58;;;;;;;23.50;18.27;;;9.00;99.90;;;;;;5023173;28;20177;-69
2021/10/10 00:30:25;;;;;;;27.40;20.70;;;9.00;99.90;;;;;;5023030;28;20263;-69
2021/10/10 00:32:51;;;;;;;24.63;19.73;;;9.00;99.90;;;;;;5013514;28;20190;-70
2021/10/10 00:35:17;;;;;;;25.20;17.97;;;9.00;99.90;;;;;;5013377;28;20405;-70
2021/10/10 00:37:43;;;;;;;25.10;18.07;;;9.00;99.90;;;;;;5013881;28;20396;-69
2021/10/10 00:40:10;;;;;;;28.17;19.30;;;8.90;99.90;;;;;;5013916;28;20393;-69
2021/10/10 00:42:36;;;;;;;22.43;17.90;;;8.90;99.90;;;;;;5013699;28;20998;-69
2021/10/10 00:45:02;;;;;;;28.57;20.27;;;8.90;99.90;;;;;;5013304;28;20448;-69
2021/10/10 00:47:27;;;;;;;24.77;19.23;;;8.90;99.90;;;;;;5013928;28;20177;-70
2021/10/10 00:49:53;;;;;;;20.90;17.67;;;8.90;99.90;;;;;;5013182;28;20879;-69
2021/10/10 00:52:20;;;;;;;27.93;17.57;;;8.90;99.90;;;;;;5013396;28;20522;-70
2021/10/10 00:54:47;;;;;;;32.27;23.40;;;8.90;99.90;;;;;;5013246;28;20177;-69
2021/10/10 00:57:14;;;;;;;27.47;22.40;;;8.80;99.90;;;;;;5019571;28;20423;-69
2021/10/10 00:59:44;;;;;;;23.67;16.40;;;8.80;99.90;;;;;;5032946;28;20545;-69
2021/10/10 01:02:10;;;;;;;18.50;16.07;;;8.80;99.90;;;;;;5032877;28;20409;-69
2021/10/10 01:04:35;;;;;;;25.80;19.00;;;8.70;99.90;;;;;;5020654;28;20968;-69
2021/10/10 01:07:01;;;;;;;21.07;17.47;;;8.70;99.90;;;;;;5013109;28;20397;-69
2021/10/10 01:09:27;;;;;;;21.37;18.37;;;8.70;99.90;;;;;;5012930;28;20273;-69
2021/10/10 01:11:53;;;;;;;23.53;18.03;;;8.70;99.90;;;;;;5013026;28;20163;-69
2021/10/10 01:14:19;;;;;;;21.70;17.00;;;8.70;99.90;;;;;;5013257;28;20464;-71
2021/10/10 01:16:45;;;;;;;23.90;18.50;;;8.70;99.90;;;;;;5012954;28;20165;-70
2021/10/10 01:19:10;;;;;;;22.90;19.00;;;8.70;99.90;;;;;;5013102;28;20443;-69
2021/10/10 01:21:36;;;;;;;22.83;17.40;;;8.60;99.90;;;;;;5013705;28;20181;-69
2021/10/10 01:24:03;;;;;;;26.50;19.20;;;8.60;99.90;;;;;;5013133;28;20166;-69
2021/10/10 01:26:29;;;;;;;22.00;17.47;;;8.60;99.90;;;;;;5012738;28;20285;-69
2021/10/10 01:28:55;;;;;;;23.83;16.23;;;8.60;99.90;;;;;;5051635;28;20423;-69
2021/10/10 01:31:20;;;;;;;22.60;17.80;;;8.60;99.90;;;;;;5052062;28;20410;-70
2021/10/10 01:33:46;;;;;;;21.87;17.30;;;8.60;99.90;;;;;;5052282;28;20209;-69
2021/10/10 01:36:13;;;;;;;17.97;15.33;;;8.60;99.90;;;;;;5052522;28;20180;-69
2021/10/10 01:38:40;;;;;;;21.63;14.87;;;8.50;99.90;;;;;;5026968;28;20242;-69
2021/10/10 01:41:07;;;;;;;18.63;15.17;;;8.50;99.90;;;;;;5012272;28;20483;-69
2021/10/10 01:43:33;;;;;;;15.70;13.83;;;8.50;99.90;;;;;;5012431;28;20976;-70
2021/10/10 01:45:58;;;;;;;13.90;12.60;;;8.40;99.90;;;;;;5012813;28;20530;-70
2021/10/10 01:48:24;;;;;;;17.90;14.47;;;8.40;99.90;;;;;;5012577;28;20188;-69
2021/10/10 01:50:50;;;;;;;16.50;14.03;;;8.30;99.90;;;;;;5012377;28;20177;-69
2021/10/10 01:53:16;;;;;;;16.67;12.60;;;8.30;99.90;;;;;;5012563;28;20161;-69
2021/10/10 01:55:43;;;;;;;21.87;15.77;;;8.30;99.90;;;;;;5013021;28;20416;-69
2021/10/10 01:58:09;;;;;;;19.90;15.60;;;8.30;99.90;;;;;;5028340;28;20176;-69
2021/10/10 02:00:35;;;;;;;28.20;20.20;;;8.30;99.90;;;;;;5031985;28;20919;-70
2021/10/10 02:03:00;;;;;;;26.20;19.20;;;8.20;99.90;;;;;;5032172;28;20173;-70
2021/10/10 02:05:26;;;;;;;20.70;15.50;;;8.20;99.90;;;;;;5031836;28;20458;-69
2021/10/10 02:07:53;;;;;;;16.20;13.40;;;8.20;99.90;;;;;;5032046;28;20167;-69
2021/10/10 02:10:19;;;;;;;16.97;13.93;;;8.20;99.90;;;;;;5032042;28;20156;-69
2021/10/10 02:12:44;;;;;;;17.97;14.10;;;8.10;99.90;;;;;;5018752;28;20426;-69
2021/10/10 02:15:11;;;;;;;16.43;12.53;;;8.10;99.90;;;;;;5012237;28;20392;-69
2021/10/10 02:17:37;;;;;;;15.63;12.67;;;8.10;99.90;;;;;;5012122;28;20211;-69
2021/10/10 02:20:04;;;;;;;13.43;12.03;;;8.10;99.90;;;;;;5012206;28;20440;-69
2021/10/10 02:22:30;;;;;;;16.33;13.43;;;8.10;99.90;;;;;;5012073;28;20403;-69
2021/10/10 02:24:55;;;;;;;14.50;12.30;;;8.00;99.90;;;;;;5012012;28;20531;-69
2021/10/10 02:27:21;;;;;;;16.63;11.87;;;8.00;99.90;;;;;;5021416;28;20181;-69
2021/10/10 02:29:47;;;;;;;13.27;10.97;;;8.00;99.90;;;;;;5018691;28;20262;-69
2021/10/10 02:32:12;;;;;;;13.70;11.47;;;8.00;99.90;;;;;;5012270;28;20248;-69
2021/10/10 02:34:38;;;;;;;13.63;12.00;;;7.90;99.90;;;;;;5012194;28;20601;-69
2021/10/10 02:37:03;;;;;;;12.83;11.30;;;7.90;99.90;;;;;;5011876;28;20169;-69
2021/10/10 02:39:29;;;;;;;15.73;12.03;;;7.90;99.90;;;;;;5011883;28;20196;-69
2021/10/10 02:41:54;;;;;;;12.47;11.13;;;7.80;99.90;;;;;;5012058;28;20200;-68
2021/10/10 02:44:20;;;;;;;15.87;12.20;;;7.80;99.90;;;;;;5011585;28;20573;-71
2021/10/10 02:46:45;;;;;;;14.90;12.73;;;7.80;99.90;;;;;;5012967;28;20173;-73
2021/10/10 02:49:11;;;;;;;14.40;12.50;;;7.80;99.90;;;;;;5011804;28;20212;-73
2021/10/10 02:51:36;;;;;;;15.47;12.57;;;7.70;99.90;;;;;;5012963;28;20161;-73
2021/10/10 02:54:02;;;;;;;15.93;13.83;;;7.70;99.90;;;;;;5015580;28;20621;-73
2021/10/10 02:56:28;;;;;;;13.20;11.53;;;7.70;99.90;;;;;;5019560;28;20183;-73
2021/10/10 02:58:53;;;;;;;14.90;13.00;;;7.70;99.90;;;;;;5034956;28;20164;-73
2021/10/10 03:01:19;;;;;;;15.13;13.53;;;7.60;99.90;;;;;;5035412;28;20179;-73
2021/10/10 03:03:44;;;;;;;15.90;12.73;;;7.60;99.90;;;;;;5022168;28;20567;-73
2021/10/10 03:06:10;;;;;;;15.70;13.13;;;7.60;99.90;;;;;;5030266;28;20207;-73
2021/10/10 03:08:36;;;;;;;16.63;13.13;;;7.60;99.90;;;;;;5035040;28;20528;-73
2021/10/10 03:11:03;;;;;;;14.73;12.00;;;7.50;99.90;;;;;;5035175;28;20168;-73
2021/10/10 03:13:29;;;;;;;20.03;14.10;;;7.50;99.90;;;;;;5035134;28;20399;-73
2021/10/10 03:15:55;;;;;;;19.70;15.30;;;7.50;99.90;;;;;;5034653;28;20500;-73
2021/10/10 03:18:21;;;;;;;24.20;17.40;;;7.50;99.90;;;;;;5034867;28;20160;-73
2021/10/10 03:20:46;;;;;;;19.33;15.00;;;7.40;99.90;;;;;;5021358;28;20431;-73
2021/10/10 03:23:12;;;;;;;15.17;13.57;;;7.40;99.90;;;;;;5014916;28;20158;-73
2021/10/10 03:25:37;;;;;;;15.83;13.47;;;7.40;99.90;;;;;;5014972;28;20300;-73
2021/10/10 03:28:03;;;;;;;16.27;13.97;;;7.50;99.90;;;;;;5031856;28;20186;-74
2021/10/10 03:30:29;;;;;;;14.03;11.53;;;7.40;99.90;;;;;;5034957;28;20183;-73
2021/10/10 03:32:54;;;;;;;16.17;12.20;;;7.40;99.90;;;;;;5034616;28;20171;-73
2021/10/10 03:35:20;;;;;;;18.40;13.70;;;7.40;99.90;;;;;;5034878;28;20266;-73
2021/10/10 03:37:45;;;;;;;15.33;12.47;;;7.40;99.90;;;;;;5020888;28;20267;-73
2021/10/10 03:40:12;;;;;;;18.90;13.30;;;7.30;99.90;;;;;;5014707;28;20168;-73
2021/10/10 03:42:38;;;;;;;14.40;12.47;;;7.30;99.90;;;;;;5014649;28;20202;-73
2021/10/10 03:45:06;;;;;;;15.77;13.77;;;7.30;99.90;;;;;;5014592;28;20457;-73
2021/10/10 03:47:32;;;;;;;14.17;12.47;;;7.30;99.90;;;;;;5014766;28;20414;-73
2021/10/10 03:49:57;;;;;;;16.43;14.53;;;7.30;99.90;;;;;;5014509;28;20531;-73
2021/10/10 03:52:23;;;;;;;14.87;12.07;;;7.30;99.90;;;;;;5014267;28;20245;-73
2021/10/10 03:55:19;;;;;;;15.50;12.20;;;7.30;99.90;;;;;;5015092;28;20191;-73
2021/10/10 03:57:34;;;;;;;14.97;12.23;;;7.30;99.90;;;;;;5042018;28;20571;-73
2021/10/10 04:00:03;;;;;;;18.13;14.50;;;7.30;99.90;;;;;;5034263;28;20420;-73
2021/10/10 04:02:28;;;;;;;16.37;13.10;;;7.20;99.90;;;;;;5033994;28;20159;-73
2021/10/10 04:04:54;;;;;;;14.37;12.43;;;7.20;99.90;;;;;;5033779;28;21041;-73
2021/10/10 04:07:20;;;;;;;17.80;12.87;;;7.20;99.90;;;;;;5034117;28;20195;-73
2021/10/10 04:09:46;;;;;;;13.70;12.20;;;7.20;99.90;;;;;;5034396;28;20398;-73
2021/10/10 04:12:12;;;;;;;14.20;12.40;;;7.20;99.90;;;;;;5016782;28;20430;-73
2021/10/10 04:14:38;;;;;;;12.57;11.27;;;7.20;99.90;;;;;;5040212;28;20441;-73
2021/10/10 04:17:04;;;;;;;25.43;13.03;;;7.20;99.90;;;;;;5053725;28;20171;-73
2021/10/10 04:19:29;;;;;;;12.33;11.00;;;7.20;99.90;;;;;;5053880;28;20197;-73
2021/10/10 04:21:55;;;;;;;16.27;12.30;;;7.20;99.90;;;;;;5053607;28;20160;-73
2021/10/10 04:24:21;;;;;;;13.73;12.30;;;7.20;99.90;;;;;;5053340;28;20614;-73
2021/10/10 04:26:46;;;;;;;14.03;12.60;;;7.20;99.90;;;;;;5052878;28;20221;-73
2021/10/10 04:29:12;;;;;;;15.40;12.30;;;7.20;99.90;;;;;;5035305;28;20466;-73
2021/10/10 04:31:37;;;;;;;15.00;13.10;;;7.20;99.90;;;;;;5033560;28;20171;-73
2021/10/10 04:34:03;;;;;;;15.63;12.50;;;7.20;99.90;;;;;;5033388;28;20160;-72
2021/10/10 04:36:29;;;;;;;14.70;12.20;;;7.20;99.90;;;;;;5033585;28;20171;-73
2021/10/10 04:38:54;;;;;;;18.33;13.50;;;7.10;99.90;;;;;;5033237;28;20851;-73
2021/10/10 04:41:20;;;;;;;14.93;12.57;;;7.10;99.90;;;;;;5033421;28;20706;-72
2021/10/10 04:43:46;;;;;;;13.77;12.30;;;7.10;99.90;;;;;;5033577;28;20207;-73
2021/10/10 04:46:11;;;;;;;12.47;11.17;;;7.10;99.90;;;;;;5016378;28;20759;-73
2021/10/10 04:48:37;;;;;;;17.83;13.53;;;7.10;99.90;;;;;;5013424;28;20600;-73
2021/10/10 04:51:03;;;;;;;13.80;11.97;;;7.10;99.90;;;;;;5013452;28;20240;-73
2021/10/10 04:53:28;;;;;;;14.23;12.40;;;7.10;99.90;;;;;;5013412;28;20157;-72
2021/10/10 04:55:54;;;;;;;17.73;12.67;;;7.10;99.90;;;;;;5015050;28;20981;-72
2021/10/10 04:58:20;;;;;;;14.23;12.60;;;7.00;99.90;;;;;;5033145;28;20193;-72
2021/10/10 05:00:45;;;;;;;14.73;12.43;;;7.10;99.90;;;;;;5032842;28;20162;-72
2021/10/10 05:03:11;;;;;;;15.00;11.47;;;7.10;99.90;;;;;;5016066;28;20674;-72
2021/10/10 05:05:36;;;;;;;13.53;10.73;;;7.00;99.90;;;;;;5012862;28;20567;-72
2021/10/10 05:08:02;;;;;;;15.73;12.30;;;7.00;99.90;;;;;;5013382;28;20616;-72
2021/10/10 05:10:27;;;;;;;16.40;11.67;;;7.00;99.90;;;;;;5013096;28;20161;-72
2021/10/10 05:12:53;;;;;;;13.37;11.87;;;7.00;99.90;;;;;;5013393;28;20187;-72
2021/10/10 05:15:18;;;;;;;14.07;12.07;;;7.00;99.90;;;;;;5012611;28;20168;-72
2021/10/10 05:17:44;;;;;;;13.77;12.37;;;7.00;99.90;;;;;;5012945;28;20271;-72
2021/10/10 05:20:10;;;;;;;13.10;11.50;;;7.00;99.90;;;;;;5013472;28;20272;-73
2021/10/10 05:22:36;;;;;;;13.73;11.90;;;6.90;99.90;;;;;;5013105;28;20159;-73
2021/10/10 05:25:02;;;;;;;14.23;11.90;;;6.90;99.90;;;;;;5012865;28;20451;-72
2021/10/10 05:27:27;;;;;;;13.80;11.80;;;6.90;99.90;;;;;;5026630;28;20277;-72
2021/10/10 05:29:53;;;;;;;14.20;12.70;;;6.90;99.90;;;;;;5032807;28;20163;-73
2021/10/10 05:32:18;;;;;;;15.87;12.40;;;6.90;99.90;;;;;;5032776;28;20676;-72
2021/10/10 05:34:44;;;;;;;18.40;13.67;;;6.90;99.90;;;;;;5032451;28;20162;-72
2021/10/10 05:37:10;;;;;;;17.47;12.87;;;6.90;99.90;;;;;;5015960;28;20203;-72
2021/10/10 05:39:35;;;;;;;13.63;11.83;;;6.90;99.90;;;;;;5013002;28;20771;-72
2021/10/10 05:42:01;;;;;;;15.10;13.00;;;6.90;99.90;;;;;;5012498;28;20194;-73
2021/10/10 05:44:27;;;;;;;17.20;12.63;;;6.80;99.90;;;;;;5012511;28;20226;-73
2021/10/10 05:46:52;;;;;;;14.40;12.70;;;6.80;99.90;;;;;;5012614;28;20157;-73
2021/10/10 05:49:18;;;;;;;14.37;12.90;;;6.80;99.90;;;;;;5012584;28;20211;-73
2021/10/10 05:51:45;;;;;;;13.60;12.17;;;6.80;99.90;;;;;;5012818;28;20168;-73
2021/10/10 05:54:13;;;;;;;13.13;11.60;;;6.80;99.90;;;;;;5012919;28;20192;-72
2021/10/10 05:56:39;;;;;;;15.57;12.10;;;6.80;99.90;;;;;;5019452;28;20431;-73
2021/10/10 05:59:08;;;;;;;14.10;12.70;;;6.80;99.90;;;;;;5032382;28;20398;-73
2021/10/10 06:01:34;;;;;;;13.90;12.40;;;6.80;99.90;;;;;;5032336;28;20508;-73
2021/10/10 06:03:59;;;;;;;15.20;11.83;;;6.80;99.90;;;;;;5032123;28;20492;-73
2021/10/10 06:06:25;;;;;;;16.40;13.00;;;6.80;99.90;;;;;;5032062;28;20206;-73
2021/10/10 06:08:50;;;;;;;13.60;12.20;;;6.80;99.90;;;;;;5032421;28;20658;-73
2021/10/10 06:11:16;;;;;;;13.30;12.10;;;6.80;99.90;;;;;;5014126;28;20268;-73
2021/10/10 06:13:42;;;;;;;15.83;14.07;;;6.80;99.90;;;;;;5012352;28;20160;-73
2021/10/10 06:16:09;;;;;;;19.50;13.43;;;6.80;99.90;;;;;;5012247;28;20440;-73
2021/10/10 06:18:35;;;;;;;14.57;13.20;;;6.80;99.90;;;;;;5012379;28;20160;-73
2021/10/10 06:21:00;;;;;;;16.00;12.40;;;6.80;99.90;;;;;;5012305;28;20486;-73
2021/10/10 06:23:26;;;;;;;14.37;12.10;;;6.80;99.90;;;;;;5012222;28;20175;-73
2021/10/10 06:25:52;;;;;;;17.80;12.70;;;6.90;99.90;;;;;;5015148;28;20210;-73
2021/10/10 06:28:17;;;;;;;17.60;13.10;;;6.90;99.90;;;;;;5018005;28;20180;-73
2021/10/10 06:30:43;;;;;;;15.30;13.47;;;6.90;99.90;;;;;;5016346;28;20168;-73
2021/10/10 06:33:09;;;;;;;14.60;12.60;;;6.90;99.90;;;;;;5016301;28;20532;-74
2021/10/10 06:35:35;;;;;;;16.40;12.80;;;7.00;99.90;;;;;;5016178;28;20247;-74
2021/10/10 06:38:00;;;;;;;13.77;12.37;;;7.00;99.90;;;;;;5015767;28;20515;-74
2021/10/10 06:40:26;;;;;;;18.00;12.87;;;7.10;99.90;;;;;;5016082;28;20531;-74
2021/10/10 06:42:52;;;;;;;16.27;12.70;;;7.10;99.90;;;;;;5015830;28;20676;-74
2021/10/10 06:45:17;;;;;;;13.90;12.40;;;7.20;99.90;;;;;;5016409;28;20742;-74
2021/10/10 06:47:43;;;;;;;14.73;12.20;;;7.20;99.90;;;;;;5015887;28;20165;-74
2021/10/10 06:50:08;;;;;;;15.03;12.37;;;7.20;99.90;;;;;;5015781;28;20165;-75
2021/10/10 06:52:34;;;;;;;15.23;13.67;;;7.30;99.90;;;;;;5016013;28;20165;-74
2021/10/10 06:54:59;;;;;;;17.60;13.20;;;7.30;99.90;;;;;;5015897;28;20175;-74
2021/10/10 06:57:29;;;;;;;13.47;11.90;;;7.30;99.90;;;;;;5031504;28;20241;-74
2021/10/10 06:59:58;;;;;;;16.20;12.63;;;7.30;99.90;;;;;;5035161;28;20264;-74
2021/10/10 07:02:24;;;;;;;14.27;12.10;;;7.40;99.90;;;;;;5016876;28;20443;-73
2021/10/10 07:04:50;;;;;;;16.97;13.03;;;7.40;99.90;;;;;;5029326;28;20551;-73
2021/10/10 07:07:15;;;;;;;13.03;11.70;;;7.50;99.90;;;;;;5054958;28;20494;-73
2021/10/10 07:09:41;;;;;;;14.43;12.57;;;7.50;99.90;;;;;;5054941;28;20217;-73
2021/10/10 07:12:06;;;;;;;14.10;12.30;;;7.60;99.90;;;;;;5055137;28;20205;-73
2021/10/10 07:14:32;;;;;;;15.73;13.20;;;7.60;99.90;;;;;;5037962;28;20374;-73
2021/10/10 07:16:58;;;;;;;16.30;13.10;;;7.60;99.90;;;;;;5045659;28;20545;-73
2021/10/10 07:19:26;;;;;;;13.93;12.53;;;7.70;99.90;;;;;;5035264;28;20258;-73
2021/10/10 07:21:57;;;;;;;14.23;12.80;;;7.70;99.90;;;;;;5034988;28;20422;-73
2021/10/10 07:24:54;;;;;;;15.50;12.40;;;7.80;99.90;;;;;;5034951;28;20453;-73
2021/10/10 07:27:08;;;;;;;14.03;12.60;;;7.90;99.90;;;;;;5034082;28;20410;-73
2021/10/10 07:29:34;;;;;;;15.50;13.03;;;7.90;99.90;;;;;;5035169;28;20404;-74
2021/10/10 07:32:01;;;;;;;15.37;13.30;;;8.00;99.90;;;;;;5034741;28;20246;-73
2021/10/10 07:34:26;;;;;;;15.20;13.70;;;8.00;99.90;;;;;;5033805;28;20478;-73
2021/10/10 07:36:52;;;;;;;17.03;15.30;;;8.10;99.90;;;;;;5034446;28;20430;-74
2021/10/10 07:39:17;;;;;;;16.57;14.33;;;8.10;99.90;;;;;;5034576;28;20538;-74
2021/10/10 07:41:43;;;;;;;14.70;13.10;;;8.20;99.90;;;;;;5034392;28;20573;-74
2021/10/10 07:44:12;;;;;;;18.97;14.00;;;8.30;99.90;;;;;;5034763;28;20211;-74
2021/10/10 07:46:40;;;;;;;15.53;13.10;;;8.30;99.90;;;;;;5034694;28;20219;-74
2021/10/10 07:49:08;;;;;;;17.30;14.40;;;8.40;99.90;;;;;;5034484;28;20408;-75
2021/10/10 07:51:34;;;;;;;15.10;13.60;;;8.50;99.90;;;;;;5030966;28;20431;-75
2021/10/10 07:53:59;;;;;;;15.87;14.27;;;8.60;99.90;;;;;;5014353;28;20432;-75
2021/10/10 07:56:25;;;;;;;17.13;15.27;;;8.70;99.90;;;;;;5014338;28;20408;-75
2021/10/10 07:58:51;;;;;;;15.87;14.17;;;8.80;99.90;;;;;;5014564;28;20174;-75
2021/10/10 08:01:16;;;;;;;16.97;14.97;;;8.90;99.90;;;;;;5014822;28;20180;-75
2021/10/10 08:03:42;;;;;;;15.00;12.97;;;8.90;99.90;;;;;;5014393;28;20618;-75
2021/10/10 08:06:09;;;;;;;17.13;15.20;;;9.00;99.90;;;;;;5014101;28;20208;-75
2021/10/10 08:08:35;;;;;;;17.70;12.70;;;9.10;99.90;;;;;;5014886;28;20178;-75
2021/10/10 08:11:01;;;;;;;16.60;13.40;;;9.20;99.90;;;;;;5014401;28;20405;-74
2021/10/10 08:13:26;;;;;;;15.40;13.87;;;9.30;99.90;;;;;;5014397;28;20162;-75
2021/10/10 08:15:52;;;;;;;13.17;11.80;;;9.30;99.90;;;;;;5025038;28;20264;-75
2021/10/10 08:18:17;;;;;;;14.27;12.80;;;9.50;99.90;;;;;;5033888;28;20170;-75
2021/10/10 08:20:43;;;;;;;14.00;12.00;;;9.50;99.90;;;;;;5033866;28;20182;-75
2021/10/10 08:23:10;;;;;;;15.50;12.40;;;9.60;99.90;;;;;;5033881;28;20157;-75
2021/10/10 08:25:36;;;;;;;13.83;12.33;;;9.70;99.90;;;;;;5029821;28;20734;-75
2021/10/10 08:28:02;;;;;;;13.17;11.87;;;9.80;99.90;;;;;;5013915;28;20556;-75
2021/10/10 08:30:27;;;;;;;13.13;11.67;;;9.90;99.90;;;;;;5013918;28;20165;-75
2021/10/10 08:32:53;;;;;;;15.53;13.67;;;10.00;99.90;;;;;;5013979;28;20227;-75
2021/10/10 08:35:19;;;;;;;15.33;12.40;;;10.10;99.90;;;;;;5013759;28;20248;-75
2021/10/10 08:37:45;;;;;;;13.83;12.37;;;10.20;99.90;;;;;;5013754;28;20549;-75
2021/10/10 08:40:13;;;;;;;12.57;11.10;;;10.30;99.90;;;;;;5013727;28;20181;-75
2021/10/10 08:42:43;;;;;;;12.47;11.30;;;10.30;99.90;;;;;;5014249;28;20255;-75
2021/10/10 08:45:13;;;;;;;14.13;12.53;;;10.40;99.90;;;;;;5020693;28;20594;-75
2021/10/10 08:47:43;;;;;;;13.97;12.47;;;10.40;99.90;;;;;;5033259;28;20803;-75
2021/10/10 08:50:23;;;;;;;14.17;12.67;;;10.50;99.90;;;;;;5032461;28;20395;-75
2021/10/10 08:52:52;;;;;;;15.00;11.57;;;10.50;99.90;;;;;;5033385;28;20415;-75
2021/10/10 08:55:18;;;;;;;17.20;12.87;;;10.60;99.90;;;;;;5033537;28;20422;-75
2021/10/10 08:57:44;;;;;;;15.10;11.97;;;10.60;99.90;;;;;;5032936;28;20430;-75
2021/10/10 09:00:16;;;;;;;14.23;10.80;;;10.60;99.90;;;;;;5024424;28;20461;-75
2021/10/10 09:02:46;;;;;;;13.10;11.73;;;10.70;99.90;;;;;;5013136;28;20447;-75
2021/10/10 09:05:12;;;;;;;12.07;10.70;;;10.70;99.90;;;;;;5013109;28;20879;-75
2021/10/10 09:07:38;;;;;;;12.70;10.77;;;10.80;99.90;;;;;;5013180;28;20423;-75
2021/10/10 09:15:47;;;;;;;12.77;10.57;;;10.90;99.90;;;;;;5069373;28;20623;-73
2021/10/10 09:18:12;;;;;;;11.53;10.43;;;11.00;99.90;;;;;;5035242;28;20407;-73
2021/10/10 09:20:41;;;;;;;12.20;10.90;;;11.00;99.90;;;;;;5030356;28;20410;-73
2021/10/10 09:23:28;;;;;;;10.10;9.17;;;11.10;99.90;;;;;;5030148;28;20583;-73
2021/10/10 09:25:56;;;;;;;11.03;9.83;;;11.10;99.90;;;;;;5029984;28;20403;-73
2021/10/10 09:28:24;;;;;;;16.60;10.97;;;11.20;99.90;;;;;;5029904;28;20415;-73
2021/10/10 09:30:53;;;;;;;9.53;8.60;;;11.30;99.90;;;;;;5029762;28;20790;-73
2021/10/10 09:33:34;;;;;;;12.60;10.73;;;11.40;99.90;;;;;;5030307;28;20423;-74
2021/10/10 09:36:03;;;;;;;10.60;9.13;;;11.50;99.90;;;;;;5029707;28;20435;-73
2021/10/10 09:38:29;;;;;;;9.07;8.10;;;11.60;99.90;;;;;;5029834;28;20399;-73
2021/10/10 09:46:49;;;;;;;9.80;8.83;;;12.10;99.90;;;;;;5070073;28;21000;-73
2021/10/10 09:49:34;;;;;;;11.20;7.47;;;12.20;99.90;;;;;;5070035;28;20892;-73
2021/10/10 09:57:27;;;;;;;11.10;7.40;;;12.60;99.90;;;;;;5110509;27;20514;-73
2021/10/10 09:59:53;;;;;;;8.57;7.67;;;12.70;99.90;;;;;;5110523;28;20385;-73
2021/10/10 10:02:36;;;;;;;10.20;9.20;;;12.80;99.90;;;;;;5110433;28;20388;-74
2021/10/10 10:05:02;;;;;;;9.70;8.80;;;12.80;99.90;;;;;;5110428;28;20179;-74
2021/10/10 10:07:28;;;;;;;8.73;7.83;;;12.90;99.90;;;;;;5107730;28;20431;-74
2021/10/10 10:09:54;;;;;;;10.70;7.90;;;13.00;99.90;;;;;;5090077;28;20198;-73
2021/10/10 10:12:22;;;;;;;10.73;7.83;;;13.00;99.90;;;;;;5089828;28;20389;-73
2021/10/10 10:14:53;;;;;;;8.83;7.83;;;13.10;99.90;;;;;;5095900;28;20226;-74
2021/10/10 10:17:23;;;;;;;12.67;8.40;;;13.10;99.90;;;;;;5110290;28;20806;-73
2021/10/10 10:19:49;;;;;;;10.57;7.80;;;13.10;99.90;;;;;;5110066;28;20427;-73
2021/10/10 10:22:17;;;;;;;9.70;8.70;;;13.20;99.90;;;;;;5109979;28;20392;-74
2021/10/10 10:24:45;;;;;;;9.17;8.27;;;13.20;99.90;;;;;;5104791;28;20413;-74
2021/10/10 10:27:12;;;;;;;11.40;8.40;;;13.20;99.90;;;;;;5089624;28;20398;-73
2021/10/10 10:29:40;;;;;;;11.73;7.83;;;13.20;99.90;;;;;;5089664;28;20393;-73
2021/10/10 10:32:08;;;;;;;11.03;9.00;;;13.20;99.90;;;;;;5091256;28;20956;-74
2021/10/10 10:34:34;;;;;;;11.10;8.33;;;13.20;99.90;;;;;;5109665;28;20466;-73
2021/10/10 10:37:06;;;;;;;9.90;8.10;;;13.20;99.90;;;;;;5110023;28;20471;-74
2021/10/10 10:39:48;;;;;;;9.60;8.00;;;13.20;99.90;;;;;;5109832;28;20615;-74
2021/10/10 10:42:37;;;;;;;10.20;8.30;;;13.20;99.90;;;;;;5099588;28;20488;-73
2021/10/10 10:47:57;;;;;;;9.60;8.50;;;13.20;99.90;;;;;;5070025;28;20527;-74
2021/10/10 10:50:29;;;;;;;10.90;8.67;;;13.20;99.90;;;;;;5069949;28;20382;-74
2021/10/10 10:53:05;;;;;;;9.07;7.13;;;13.20;99.90;;;;;;5069988;28;20890;-72
2021/10/10 10:58:13;;;;;;;9.07;6.90;;;13.30;99.90;;;;;;5089991;27;20997;-75
2021/10/10 11:00:41;;;;;;;12.00;8.13;;;13.30;99.90;;;;;;5070196;28;20391;-74
2021/10/10 11:08:47;;;;;;;9.30;7.90;;;13.50;99.90;;;;;;5069975;28;20517;-74
2021/10/10 11:11:23;;;;;;;9.87;8.67;;;13.50;99.90;;;;;;5065636;28;20543;-73
2021/10/10 11:13:54;;;;;;;9.67;7.27;;;13.60;99.90;;;;;;5069921;28;20370;-74
2021/10/10 11:19:07;;;;;;;10.00;7.53;;;13.60;99.90;;;;;;5069888;28;20628;-73
2021/10/10 11:21:36;;;;;;;10.97;8.00;;;13.80;99.90;;;;;;5069909;28;20448;-73
2021/10/10 11:24:04;;;;;;;10.43;8.90;;;13.90;99.90;;;;;;5069729;28;20383;-74
2021/10/10 11:26:34;;;;;;;10.13;8.73;;;13.90;99.90;;;;;;5069773;28;20913;-73
2021/10/10 11:29:05;;;;;;;9.60;6.40;;;14.00;99.90;;;;;;5070028;28;20401;-73
2021/10/10 11:31:32;;;;;;;8.10;7.30;;;14.10;99.90;;;;;;5069761;28;20878;-73
2021/10/10 11:34:02;;;;;;;8.33;7.53;;;14.10;99.90;;;;;;5054287;28;20409;-73
2021/10/10 11:39:31;;;;;;;11.90;9.27;;;14.20;99.90;;;;;;5070102;28;20519;-74
2021/10/10 11:41:59;;;;;;;8.80;7.90;;;14.30;99.90;;;;;;5069562;28;20504;-73
2021/10/10 11:44:43;;;;;;;8.93;7.47;;;14.30;99.90;;;;;;5069793;28;20401;-73
2021/10/10 11:47:29;;;;;;;12.83;8.30;;;14.30;99.90;;;;;;5069882;28;20379;-73
2021/10/10 11:49:57;;;;;;;13.03;7.60;;;14.40;99.90;;;;;;5058456;28;20794;-73
2021/10/10 11:55:24;;;;;;;8.60;7.80;;;14.30;99.90;;;;;;5090248;27;20547;-75
2021/10/10 11:57:56;;;;;;;9.67;7.43;;;14.30;99.90;;;;;;5090224;28;20419;-75
2021/10/10 12:00:26;;;;;;;7.70;6.80;;;14.30;99.90;;;;;;5090175;28;20384;-75
2021/10/10 12:02:51;;;;;;;11.10;7.80;;;14.30;99.90;;;;;;5090128;28;20384;-73
2021/10/10 12:05:20;;;;;;;9.17;8.03;;;14.30;99.90;;;;;;5090087;28;20388;-72
2021/10/10 12:07:48;;;;;;;8.77;6.60;;;14.30;99.90;;;;;;5089504;28;20169;-75
2021/10/10 12:10:18;;;;;;;11.20;7.70;;;14.30;99.90;;;;;;5088631;28;20392;-75
2021/10/10 12:12:45;;;;;;;9.83;8.40;;;14.30;99.90;;;;;;5069556;28;20444;-75
2021/10/10 12:15:12;;;;;;;9.57;7.77;;;14.30;99.90;;;;;;5069557;28;20391;-75
2021/10/10 12:17:44;;;;;;;9.57;7.90;;;14.30;99.90;;;;;;5069594;28;20866;-75
2021/10/10 12:23:06;;;;;;;8.70;7.30;;;14.20;99.90;;;;;;5070013;28;20965;-74
2021/10/10 12:28:15;;;;;;;8.37;7.50;;;14.10;99.90;;;;;;5069805;28;20516;-73
2021/10/10 12:30:50;;;;;;;12.67;6.60;;;13.90;99.90;;;;;;5069893;28;20844;-73
2021/10/10 12:33:40;;;;;;;10.63;6.90;;;13.90;99.90;;;;;;5069860;28;20378;-74
2021/10/10 12:38:50;;;;;;;7.67;6.80;;;13.80;99.90;;;;;;5090767;28;20511;-74
2021/10/10 12:46:49;;;;;;;8.57;6.77;;;13.70;99.90;;;;;;5070146;28;20516;-73
2021/10/10 12:49:26;;;;;;;9.30;7.27;;;13.50;99.90;;;;;;5069931;28;20803;-73
2021/10/10 12:51:53;;;;;;;16.63;7.23;;;13.60;99.90;;;;;;5070034;28;20965;-73
2021/10/10 12:54:22;;;;;;;8.13;7.30;;;13.50;99.90;;;;;;5069639;28;20399;-73
2021/10/10 12:59:48;;;;;;;8.70;7.50;;;13.50;99.90;;;;;;5069832;28;20990;-74
2021/10/10 13:02:14;;;;;;;7.83;6.57;;;13.40;99.90;;;;;;5069913;28;20860;-73
2021/10/10 13:04:39;;;;;;;9.03;7.30;;;13.40;99.90;;;;;;5070018;28;20383;-73
2021/10/10 13:07:06;;;;;;;8.20;6.67;;;13.40;99.90;;;;;;5069864;28;20218;-73
2021/10/10 13:09:32;;;;;;;9.57;7.93;;;13.30;99.90;;;;;;5069931;28;20159;-74
2021/10/10 13:12:01;;;;;;;9.10;7.40;;;13.30;99.90;;;;;;5069017;28;20841;-74
2021/10/10 13:14:27;;;;;;;10.80;7.17;;;13.30;99.90;;;;;;5067176;28;20410;-73
2021/10/10 13:16:53;;;;;;;8.73;6.53;;;13.30;99.90;;;;;;5049617;28;20743;-73
2021/10/10 13:19:19;;;;;;;9.23;6.57;;;13.20;99.90;;;;;;5049491;28;20181;-73
2021/10/10 13:21:47;;;;;;;6.53;5.93;;;13.20;99.90;;;;;;5049774;28;20430;-74
2021/10/10 13:24:15;;;;;;;7.47;6.77;;;13.20;99.90;;;;;;5049643;28;20398;-74
2021/10/10 13:26:40;;;;;;;6.33;5.63;;;13.30;99.90;;;;;;5049566;28;20395;-74
2021/10/10 13:29:07;;;;;;;8.10;6.87;;;13.40;99.90;;;;;;5049793;28;20391;-73
2021/10/10 13:31:34;;;;;;;7.00;6.30;;;13.40;99.90;;;;;;5049905;28;20208;-73